Time;durP1;ratioP1;P1;durP2;ratioP2;P2;SDS_P1;SDS_P2;PMS_P1;PMS_P2;Temp;Humidity;BMP_temperature;BMP_pressure;BME280_temperature;BME280_humidity;BME280_pressure;Samples;Min_cycle;Max_cycle;Signal;HPM_P1;HPM_P2
2022/09/09 00:01:05;;;;;;;0.75;0.50;;;16.50;87.70;;;;;;5016163;28;20021;-80
2022/09/09 00:03:46;;;;;;;1.23;0.60;;;16.50;88.00;;;;;;5018502;28;20075;-79
2022/09/09 00:06:25;;;;;;;2.40;0.70;;;16.50;88.20;;;;;;5042458;28;20656;-80
2022/09/09 00:09:16;;;;;;;1.13;0.60;;;16.50;88.00;;;;;;5034009;28;20024;-80
2022/09/09 00:12:04;;;;;;;0.88;0.60;;;16.50;88.30;;;;;;5017919;28;20017;-80
2022/09/09 00:14:36;;;;;;;2.72;0.60;;;16.50;88.50;;;;;;5034577;28;20024;-79
2022/09/09 00:17:08;;;;;;;1.10;0.50;;;16.40;88.30;;;;;;5015217;28;20069;-79
2022/09/09 00:20:14;;;;;;;0.70;0.50;;;16.40;88.40;;;;;;5038093;28;20021;-79
2022/09/09 00:22:47;;;;;;;0.55;0.40;;;16.40;89.50;;;;;;4937581;28;20030;-80
2022/09/09 00:25:28;;;;;;;0.73;0.50;;;16.40;88.50;;;;;;5025867;28;20033;-80
2022/09/09 00:27:54;;;;;;;0.60;0.52;;;16.40;88.60;;;;;;5041915;28;20021;-79
2022/09/09 00:30:25;;;;;;;1.90;0.53;;;16.40;88.60;;;;;;5037846;28;20024;-80
2022/09/09 00:32:57;;;;;;;1.42;0.60;;;16.40;88.70;;;;;;4990664;28;20461;-80
2022/09/09 00:35:29;;;;;;;0.52;0.50;;;16.40;89.00;;;;;;5018342;28;20499;-79
2022/09/09 00:38:13;;;;;;;0.60;0.60;;;16.40;89.20;;;;;;5030849;28;20056;-79
2022/09/09 00:41:03;;;;;;;0.73;0.60;;;16.40;89.30;;;;;;5039168;28;20032;-80
2022/09/09 00:43:35;;;;;;;0.93;0.50;;;16.40;89.50;;;;;;5044594;28;20194;-79
2022/09/09 00:46:10;;;;;;;1.33;0.60;;;16.40;89.50;;;;;;5020087;28;20163;-79
2022/09/09 00:48:59;;;;;;;0.50;0.50;;;16.40;90.10;;;;;;5000733;28;20028;-79
2022/09/09 00:51:53;;;;;;;1.77;0.60;;;16.40;89.80;;;;;;5053026;28;20078;-80
2022/09/09 00:54:44;;;;;;;1.15;0.60;;;16.50;89.90;;;;;;5026820;28;20320;-79
2022/09/09 00:57:27;;;;;;;1.00;0.60;;;16.50;90.00;;;;;;5038430;28;20024;-79
2022/09/09 01:00:04;;;;;;;0.98;0.65;;;16.50;90.00;;;;;;5035855;28;20268;-79
2022/09/09 01:02:41;;;;;;;1.23;0.60;;;16.50;90.00;;;;;;5018240;28;20532;-80
2022/09/09 01:05:19;;;;;;;1.63;0.70;;;16.50;90.00;;;;;;5019252;28;20869;-80
2022/09/09 01:07:48;;;;;;;2.25;0.73;;;16.50;90.10;;;;;;5034300;28;20024;-80
2022/09/09 01:10:33;;;;;;;1.70;0.70;;;16.50;90.10;;;;;;5056252;28;20032;-80
2022/09/09 01:13:02;;;;;;;0.93;0.60;;;16.50;90.20;;;;;;5041242;28;20792;-80
2022/09/09 01:15:31;;;;;;;1.10;0.50;;;16.50;90.20;;;;;;5051212;28;20012;-80
2022/09/09 01:18:13;;;;;;;1.42;0.80;;;16.60;90.20;;;;;;5027495;28;20032;-80
2022/09/09 01:21:04;;;;;;;1.80;0.70;;;16.60;90.30;;;;;;5004251;28;20031;-80
2022/09/09 01:23:44;;;;;;;1.00;0.80;;;16.60;90.30;;;;;;5039579;28;20085;-80
2022/09/09 01:26:43;;;;;;;1.15;0.68;;;16.50;90.20;;;;;;5050048;28;20165;-80
2022/09/09 01:29:13;;;;;;;2.20;0.60;;;16.50;90.30;;;;;;5018478;28;20036;-80
2022/09/09 01:31:42;;;;;;;1.75;0.60;;;16.60;90.30;;;;;;5026295;28;20550;-80
2022/09/09 01:34:17;;;;;;;1.00;0.65;;;16.50;90.20;;;;;;5016647;28;20033;-79
2022/09/09 01:37:04;;;;;;;2.13;0.60;;;16.50;90.30;;;;;;5015588;28;20032;-79
2022/09/09 01:39:32;;;;;;;2.05;0.55;;;16.60;90.40;;;;;;5038739;28;20025;-80
2022/09/09 01:41:57;;;;;;;4.00;0.80;;;16.50;90.20;;;;;;5048546;28;20218;-79
2022/09/09 01:44:25;;;;;;;1.38;0.63;;;16.50;90.30;;;;;;5055829;28;20028;-80
2022/09/09 01:46:51;;;;;;;1.10;0.60;;;16.50;90.30;;;;;;5024482;28;20127;-80
2022/09/09 01:49:17;;;;;;;1.15;0.55;;;16.50;90.30;;;;;;5043124;28;20028;-79
2022/09/09 01:51:46;;;;;;;1.15;0.60;;;16.50;90.30;;;;;;5039445;28;20028;-80
2022/09/09 01:54:11;;;;;;;2.15;0.80;;;16.50;90.30;;;;;;5047991;28;20021;-79
2022/09/09 01:56:55;;;;;;;1.90;0.67;;;16.50;90.20;;;;;;5050181;28;20032;-80
2022/09/09 01:59:30;;;;;;;1.00;0.70;;;16.50;90.30;;;;;;5015130;28;20056;-79
2022/09/09 02:02:19;;;;;;;0.93;0.65;;;16.50;90.30;;;;;;5006399;28;20231;-79
2022/09/09 02:04:48;;;;;;;1.50;0.60;;;16.50;90.40;;;;;;5013266;28;20109;-79
2022/09/09 02:07:38;;;;;;;1.43;0.70;;;16.40;90.30;;;;;;5021700;28;20425;-79
2022/09/09 02:10:26;;;;;;;0.70;0.60;;;16.40;90.40;;;;;;5025041;28;20681;-80
2022/09/09 02:13:13;;;;;;;1.10;0.60;;;16.40;90.40;;;;;;5023886;28;20078;-79
2022/09/09 02:15:51;;;;;;;0.77;0.60;;;16.40;90.50;;;;;;5034926;28;20441;-79
2022/09/09 02:18:24;;;;;;;1.45;0.70;;;16.40;90.50;;;;;;5007988;28;20237;-80
2022/09/09 02:20:51;;;;;;;1.07;0.60;;;16.30;90.50;;;;;;5015364;28;20044;-80
2022/09/09 02:23:17;;;;;;;1.48;0.70;;;16.30;90.50;;;;;;5015709;28;20332;-80
2022/09/09 02:25:46;;;;;;;2.45;0.70;;;16.30;90.90;;;;;;5036493;28;20107;-80
2022/09/09 02:28:13;;;;;;;2.22;0.65;;;16.30;90.60;;;;;;5032983;28;20224;-79
2022/09/09 02:30:43;;;;;;;2.25;0.80;;;16.30;90.60;;;;;;5048742;28;20448;-79
2022/09/09 02:33:12;;;;;;;1.10;0.70;;;16.30;90.60;;;;;;5023252;28;20025;-79
2022/09/09 02:35:39;;;;;;;1.67;0.70;;;16.30;90.70;;;;;;5016960;28;20090;-80
2022/09/09 02:38:10;;;;;;;1.52;0.60;;;16.30;90.70;;;;;;5033790;28;20016;-79
2022/09/09 02:40:36;;;;;;;2.38;0.68;;;16.30;90.70;;;;;;5053328;28;20032;-80
2022/09/09 02:43:02;;;;;;;0.83;0.53;;;16.30;90.70;;;;;;5044981;28;20101;-80
2022/09/09 02:45:36;;;;;;;1.17;0.88;;;16.30;90.80;;;;;;5034665;28;20229;-80
2022/09/09 02:48:34;;;;;;;1.63;0.68;;;16.30;90.80;;;;;;5020088;28;20021;-80
2022/09/09 02:51:11;;;;;;;0.63;0.60;;;16.30;90.80;;;;;;5030578;28;20082;-79
2022/09/09 02:53:50;;;;;;;2.35;0.80;;;16.30;90.90;;;;;;5009870;28;20051;-80
2022/09/09 02:56:21;;;;;;;1.17;0.60;;;16.20;90.90;;;;;;5028992;28;20052;-79
2022/09/09 02:58:47;;;;;;;1.45;0.60;;;16.30;90.90;;;;;;4985877;28;20104;-80
2022/09/09 03:01:14;;;;;;;1.05;0.60;;;16.20;90.90;;;;;;5027337;28;20089;-80
2022/09/09 03:03:41;;;;;;;1.42;0.80;;;16.20;90.90;;;;;;5003930;28;20393;-79
2022/09/09 03:06:07;;;;;;;3.30;0.80;;;16.20;91.00;;;;;;5022934;28;20260;-80
2022/09/09 03:08:32;;;;;;;1.93;0.80;;;16.20;91.30;;;;;;5039157;28;20491;-80
2022/09/09 03:11:01;;;;;;;3.10;0.80;;;16.20;91.20;;;;;;5031732;28;20137;-80
2022/09/09 03:13:27;;;;;;;3.83;0.80;;;16.30;91.30;;;;;;5032920;28;20059;-80
2022/09/09 03:15:52;;;;;;;1.45;0.60;;;16.30;91.30;;;;;;5035851;28;20048;-80
2022/09/09 03:18:18;;;;;;;2.97;0.70;;;16.30;91.30;;;;;;5026179;28;20032;-79
2022/09/09 03:20:46;;;;;;;2.13;0.60;;;16.30;91.30;;;;;;5029601;28;20367;-80
2022/09/09 03:23:13;;;;;;;2.65;0.70;;;16.30;91.20;;;;;;5032774;28;20194;-79
2022/09/09 03:25:39;;;;;;;2.53;0.77;;;16.30;91.20;;;;;;5023596;28;20071;-80
2022/09/09 03:28:05;;;;;;;1.30;0.73;;;16.30;91.20;;;;;;5054070;28;20229;-80
2022/09/09 03:30:30;;;;;;;1.80;0.63;;;16.30;91.20;;;;;;5026320;28;20020;-80
2022/09/09 03:32:57;;;;;;;1.17;0.70;;;16.30;91.30;;;;;;5027038;28;20312;-80
2022/09/09 03:35:22;;;;;;;3.20;0.90;;;16.30;91.40;;;;;;5016413;28;20032;-80
2022/09/09 03:37:48;;;;;;;5.15;0.82;;;16.30;91.40;;;;;;5028646;28;20485;-80
2022/09/09 03:40:14;;;;;;;1.60;0.80;;;16.30;91.40;;;;;;5021303;28;20496;-79
2022/09/09 03:42:40;;;;;;;1.25;0.70;;;16.30;91.40;;;;;;5043064;28;20096;-80
2022/09/09 03:45:09;;;;;;;1.70;0.70;;;16.30;91.60;;;;;;5018706;28;20677;-80
2022/09/09 03:47:34;;;;;;;2.40;0.70;;;16.30;91.60;;;;;;5035415;28;20138;-79
2022/09/09 03:50:00;;;;;;;2.15;0.80;;;16.30;91.60;;;;;;5027549;28;20051;-79
2022/09/09 03:52:26;;;;;;;3.43;0.80;;;16.30;91.60;;;;;;5004636;28;20416;-79
2022/09/09 03:54:53;;;;;;;2.42;0.80;;;16.30;91.60;;;;;;5043381;28;20033;-80
2022/09/09 03:57:20;;;;;;;1.77;0.70;;;16.30;91.60;;;;;;5034811;28;20164;-79
2022/09/09 03:59:45;;;;;;;1.40;0.77;;;16.40;91.70;;;;;;5057734;28;20024;-80
2022/09/09 04:02:11;;;;;;;1.60;0.73;;;16.40;91.70;;;;;;5033173;28;20121;-80
2022/09/09 04:04:36;;;;;;;2.30;0.70;;;16.40;91.70;;;;;;5027675;28;20499;-80
2022/09/09 04:07:02;;;;;;;2.85;0.70;;;16.30;91.70;;;;;;5039565;28;20033;-80
2022/09/09 04:09:28;;;;;;;1.97;0.73;;;16.40;91.70;;;;;;5033492;28;20029;-80
2022/09/09 04:11:54;;;;;;;2.35;0.80;;;16.40;92.00;;;;;;5021493;28;20090;-80
2022/09/09 04:14:21;;;;;;;2.38;0.82;;;16.40;91.70;;;;;;5019548;28;20608;-79
2022/09/09 04:16:47;;;;;;;2.00;0.70;;;16.40;91.70;;;;;;5053278;28;20532;-80
2022/09/09 04:19:14;;;;;;;3.97;0.83;;;16.40;91.70;;;;;;5026964;28;20029;-80
2022/09/09 04:21:41;;;;;;;3.50;0.90;;;16.40;91.70;;;;;;5030161;28;20118;-79
2022/09/09 04:24:08;;;;;;;1.02;0.73;;;16.40;91.80;;;;;;5010675;28;20105;-80
2022/09/09 04:26:34;;;;;;;3.07;0.90;;;16.40;91.80;;;;;;5015509;28;20225;-80
2022/09/09 04:29:00;;;;;;;2.50;0.77;;;16.40;91.80;;;;;;5033562;28;20716;-80
2022/09/09 04:31:26;;;;;;;2.42;0.80;;;16.40;91.80;;;;;;5024039;28;20040;-80
2022/09/09 04:33:52;;;;;;;3.17;0.70;;;16.40;91.90;;;;;;5015083;28;20060;-80
2022/09/09 04:36:21;;;;;;;2.92;0.80;;;16.40;91.90;;;;;;5024821;28;20016;-79
2022/09/09 04:38:48;;;;;;;2.33;0.70;;;16.40;92.00;;;;;;5027944;28;20028;-80
2022/09/09 04:41:14;;;;;;;2.10;0.90;;;16.40;92.00;;;;;;5022312;28;20056;-80
2022/09/09 04:43:40;;;;;;;4.30;0.83;;;16.40;92.10;;;;;;5040375;28;20344;-80
2022/09/09 04:46:06;;;;;;;1.63;0.75;;;16.40;92.10;;;;;;5049860;28;20024;-79
2022/09/09 04:48:32;;;;;;;1.85;0.80;;;16.40;92.10;;;;;;5031743;28;20032;-79
2022/09/09 04:50:59;;;;;;;2.40;0.90;;;16.40;92.10;;;;;;5031927;28;20028;-80
2022/09/09 04:53:25;;;;;;;3.53;0.90;;;16.40;92.40;;;;;;5028352;28;20249;-79
2022/09/09 04:56:02;;;;;;;2.30;0.80;;;16.40;92.00;;;;;;5062158;28;20051;-80
2022/09/09 04:58:28;;;;;;;2.10;0.80;;;16.40;92.00;;;;;;5020731;28;20029;-79
2022/09/09 05:00:54;;;;;;;2.77;1.00;;;16.40;92.00;;;;;;5023976;28;20396;-79
2022/09/09 05:03:19;;;;;;;2.13;0.83;;;16.40;92.00;;;;;;4999625;28;20353;-79
2022/09/09 05:05:45;;;;;;;2.83;1.20;;;16.40;92.00;;;;;;5032584;28;20161;-80
2022/09/09 05:08:11;;;;;;;3.35;0.80;;;16.40;92.10;;;;;;5027975;28;20091;-79
2022/09/09 05:10:38;;;;;;;3.23;0.77;;;16.40;92.10;;;;;;5049261;28;20029;-80
2022/09/09 05:13:04;;;;;;;2.72;0.90;;;16.40;92.10;;;;;;5022347;28;20043;-79
2022/09/09 05:15:31;;;;;;;2.08;1.00;;;16.40;92.20;;;;;;5010707;28;20349;-79
2022/09/09 05:17:59;;;;;;;4.05;0.95;;;16.40;92.20;;;;;;5033225;28;20424;-80
2022/09/09 05:20:25;;;;;;;4.75;1.10;;;16.40;92.30;;;;;;5037946;28;20040;-80
2022/09/09 05:22:54;;;;;;;2.60;0.93;;;16.40;92.30;;;;;;5019765;28;20025;-79
2022/09/09 05:25:20;;;;;;;1.55;0.80;;;16.40;92.30;;;;;;5020169;28;20766;-79
2022/09/09 05:27:45;;;;;;;3.42;0.90;;;16.40;92.40;;;;;;5019795;28;21971;-80
2022/09/09 05:30:11;;;;;;;2.13;0.90;;;16.50;92.40;;;;;;5019642;28;20439;-79
2022/09/09 05:32:37;;;;;;;2.33;0.95;;;16.50;92.50;;;;;;5011881;28;20021;-79
2022/09/09 05:35:03;;;;;;;4.10;1.10;;;16.50;92.50;;;;;;5006704;28;20013;-79
2022/09/09 05:37:31;;;;;;;3.05;1.00;;;16.50;92.60;;;;;;5021374;28;20794;-79
2022/09/09 05:39:57;;;;;;;3.20;1.00;;;16.50;92.70;;;;;;5036611;28;20025;-79
2022/09/09 05:42:23;;;;;;;3.42;1.10;;;16.50;92.80;;;;;;5017425;28;20042;-79
2022/09/09 05:44:50;;;;;;;2.43;1.17;;;16.60;93.00;;;;;;5034751;28;20753;-80
2022/09/09 05:47:17;;;;;;;2.17;1.00;;;16.60;93.10;;;;;;5035973;28;20566;-79
2022/09/09 05:49:43;;;;;;;3.33;0.88;;;16.70;93.30;;;;;;5005947;28;20041;-79
2022/09/09 05:52:09;;;;;;;4.40;1.02;;;16.80;93.40;;;;;;5035898;28;20492;-80
2022/09/09 05:54:37;;;;;;;4.30;1.10;;;16.80;93.40;;;;;;5034186;28;20025;-79
2022/09/09 05:57:03;;;;;;;2.60;0.93;;;16.90;93.40;;;;;;5032323;28;20024;-80
2022/09/09 05:59:29;;;;;;;2.25;1.08;;;17.00;93.40;;;;;;5013555;28;20378;-80
2022/09/09 06:01:54;;;;;;;2.33;0.95;;;17.00;93.40;;;;;;5024609;28;20112;-79
2022/09/09 06:04:22;;;;;;;2.43;1.00;;;17.10;93.30;;;;;;5014972;28;20032;-79
2022/09/09 06:06:48;;;;;;;5.70;1.40;;;17.10;93.30;;;;;;5025287;28;20028;-80
2022/09/09 06:09:15;;;;;;;4.28;1.20;;;17.20;93.20;;;;;;5030209;28;20032;-79
2022/09/09 06:11:41;;;;;;;4.20;1.10;;;17.20;93.20;;;;;;5018699;28;21366;-79
2022/09/09 06:14:08;;;;;;;2.67;1.10;;;17.20;93.20;;;;;;5024188;28;20021;-80
2022/09/09 06:16:34;;;;;;;4.35;1.13;;;17.20;93.10;;;;;;5037683;28;20228;-79
2022/09/09 06:19:00;;;;;;;6.22;1.35;;;17.30;93.10;;;;;;5053425;28;20020;-80
2022/09/09 06:21:28;;;;;;;2.92;1.20;;;17.30;93.00;;;;;;5023223;28;20023;-80
2022/09/09 06:23:54;;;;;;;3.17;1.10;;;17.30;93.00;;;;;;5040537;28;20106;-80
2022/09/09 06:26:25;;;;;;;4.13;1.57;;;17.30;93.00;;;;;;5005900;28;20033;-80
2022/09/09 06:28:53;;;;;;;2.65;1.20;;;17.30;93.00;;;;;;5031428;28;20025;-80
2022/09/09 06:31:21;;;;;;;3.50;1.50;;;17.30;93.10;;;;;;5034384;28;20029;-80
2022/09/09 06:33:47;;;;;;;2.67;1.20;;;17.40;93.10;;;;;;5037648;28;20473;-80
2022/09/09 06:36:16;;;;;;;4.50;1.20;;;17.40;93.20;;;;;;5020780;28;20095;-80
2022/09/09 06:38:42;;;;;;;2.50;1.10;;;17.40;93.30;;;;;;5048721;28;20012;-80
2022/09/09 06:41:09;;;;;;;4.03;1.27;;;17.50;93.40;;;;;;5022080;28;20029;-80
2022/09/09 06:43:35;;;;;;;3.70;1.15;;;17.50;93.40;;;;;;5037969;28;20499;-80
2022/09/09 06:46:04;;;;;;;4.43;1.20;;;17.60;93.70;;;;;;5010371;28;20052;-80
2022/09/09 06:48:29;;;;;;;3.28;1.35;;;17.60;93.80;;;;;;5035193;28;20102;-80
2022/09/09 06:51:06;;;;;;;4.60;1.30;;;17.70;93.80;;;;;;5039051;28;20323;-80
2022/09/09 06:53:35;;;;;;;4.60;1.50;;;17.80;93.60;;;;;;5024585;28;20283;-80
2022/09/09 06:56:02;;;;;;;3.58;1.33;;;17.80;93.60;;;;;;5002356;28;20546;-80
2022/09/09 06:58:28;;;;;;;2.63;1.05;;;17.80;93.40;;;;;;5030177;28;20021;-80
2022/09/09 07:01:06;;;;;;;3.65;1.30;;;17.90;93.30;;;;;;5011018;28;20044;-80
2022/09/09 07:03:32;;;;;;;3.88;1.20;;;17.90;93.10;;;;;;5057639;28;20041;-80
2022/09/09 07:05:58;;;;;;;3.00;1.20;;;17.90;93.30;;;;;;5023493;28;20623;-80
2022/09/09 07:08:24;;;;;;;3.65;1.27;;;17.90;93.40;;;;;;5047548;28;20073;-80
2022/09/09 07:10:53;;;;;;;4.15;1.63;;;18.00;93.50;;;;;;5031013;28;20249;-80
2022/09/09 07:13:25;;;;;;;4.00;1.45;;;18.00;93.40;;;;;;5022890;28;20028;-80
2022/09/09 07:15:51;;;;;;;3.53;1.40;;;18.00;93.40;;;;;;5040799;28;20016;-80
2022/09/09 07:18:17;;;;;;;2.53;1.30;;;18.10;93.40;;;;;;5000871;28;20172;-80
2022/09/09 07:20:42;;;;;;;4.57;1.40;;;18.10;93.50;;;;;;5014123;28;20263;-80
2022/09/09 07:23:08;;;;;;;3.17;1.47;;;18.20;93.40;;;;;;5011646;28;20044;-80
2022/09/09 07:25:34;;;;;;;6.32;1.30;;;18.20;93.30;;;;;;4998940;28;20024;-80
2022/09/09 07:28:08;;;;;;;1.73;0.98;;;18.10;93.30;;;;;;5050926;28;20023;-80
2022/09/09 07:30:34;;;;;;;3.63;1.30;;;18.20;93.30;;;;;;5005884;28;20299;-80
2022/09/09 07:32:59;;;;;;;3.47;1.10;;;18.20;93.30;;;;;;5017865;28;20417;-80
2022/09/09 07:35:26;;;;;;;3.77;1.10;;;18.20;93.40;;;;;;5032146;28;20099;-79
2022/09/09 07:37:52;;;;;;;5.00;1.20;;;18.20;93.50;;;;;;5009443;28;20256;-80
2022/09/09 07:40:17;;;;;;;2.33;1.20;;;18.30;93.40;;;;;;5055022;28;20469;-80
2022/09/09 07:42:43;;;;;;;4.28;1.48;;;18.30;93.30;;;;;;5024527;28;20227;-80
2022/09/09 07:45:08;;;;;;;2.27;1.07;;;18.30;93.30;;;;;;5028380;28;20032;-80
2022/09/09 07:47:35;;;;;;;3.72;1.15;;;18.30;93.30;;;;;;5018878;28;20260;-79
2022/09/09 07:50:01;;;;;;;2.63;1.00;;;18.40;93.30;;;;;;5013268;28;20020;-80
2022/09/09 07:52:27;;;;;;;2.55;0.90;;;18.40;93.30;;;;;;5040261;28;20025;-79
2022/09/09 07:54:52;;;;;;;3.88;1.30;;;18.40;93.30;;;;;;5033249;28;20135;-80
2022/09/09 07:57:18;;;;;;;6.13;1.20;;;18.40;93.30;;;;;;5054291;28;20078;-80
2022/09/09 07:59:44;;;;;;;5.60;1.25;;;18.40;93.40;;;;;;5017857;28;20039;-80
2022/09/09 08:02:10;;;;;;;3.47;1.43;;;18.50;93.20;;;;;;5029524;28;20028;-79
2022/09/09 08:04:36;;;;;;;3.72;1.27;;;18.50;93.20;;;;;;5002147;28;20769;-79
2022/09/09 08:07:03;;;;;;;2.53;1.00;;;18.50;93.10;;;;;;5028362;28;20032;-80
2022/09/09 08:09:29;;;;;;;4.73;1.20;;;18.60;93.20;;;;;;5028106;28;20025;-79
2022/09/09 08:11:56;;;;;;;3.50;1.20;;;18.60;93.20;;;;;;5041384;28;20029;-80
2022/09/09 08:14:22;;;;;;;2.35;1.10;;;18.60;93.40;;;;;;5012187;28;20452;-80
2022/09/09 08:16:49;;;;;;;4.50;1.38;;;18.70;93.90;;;;;;5054064;28;20021;-80
2022/09/09 08:19:15;;;;;;;4.65;1.33;;;18.70;93.90;;;;;;5024889;28;20024;-80
2022/09/09 08:21:42;;;;;;;2.17;0.97;;;18.90;94.50;;;;;;5019455;28;20167;-80
2022/09/09 08:24:14;;;;;;;3.55;1.25;;;19.00;94.90;;;;;;5050246;28;20032;-80
2022/09/09 08:26:47;;;;;;;2.58;1.20;;;19.10;94.60;;;;;;5005171;28;20024;-80
2022/09/09 08:29:13;;;;;;;3.33;1.20;;;19.30;94.60;;;;;;5038088;28;20615;-80
2022/09/09 08:31:45;;;;;;;2.20;1.00;;;19.50;94.50;;;;;;5027483;28;20031;-81
2022/09/09 08:34:11;;;;;;;3.70;1.20;;;19.60;93.80;;;;;;5024878;28;20281;-80
2022/09/09 08:36:40;;;;;;;3.92;1.30;;;19.70;93.40;;;;;;5018936;28;20016;-80
2022/09/09 08:39:08;;;;;;;3.28;1.17;;;19.70;93.00;;;;;;5034348;28;20038;-79
2022/09/09 08:41:37;;;;;;;4.00;1.00;;;19.70;92.70;;;;;;5005641;28;20112;-80
2022/09/09 08:44:20;;;;;;;3.40;1.10;;;19.70;92.30;;;;;;5054494;28;20032;-79
2022/09/09 08:47:13;;;;;;;5.03;1.10;;;19.60;92.20;;;;;;5001794;28;20637;-80
2022/09/09 08:49:51;;;;;;;3.00;1.00;;;19.60;91.60;;;;;;5022783;28;20055;-80
2022/09/09 08:52:22;;;;;;;2.22;0.93;;;19.50;92.20;;;;;;5027281;28;20305;-80
2022/09/09 08:54:49;;;;;;;2.63;1.10;;;19.50;92.00;;;;;;5061418;28;20033;-80
2022/09/09 08:57:21;;;;;;;3.45;1.10;;;19.40;92.20;;;;;;5042094;28;20044;-80
2022/09/09 08:59:50;;;;;;;3.77;1.10;;;19.40;92.20;;;;;;5055587;28;20035;-80
2022/09/09 09:02:27;;;;;;;5.18;1.38;;;19.40;92.20;;;;;;5014969;28;20242;-79
2022/09/09 09:04:58;;;;;;;4.53;1.30;;;19.30;92.10;;;;;;5032966;28;20037;-80
2022/09/09 09:07:50;;;;;;;2.63;1.30;;;19.30;92.10;;;;;;5032611;28;20692;-80
2022/09/09 09:10:28;;;;;;;6.22;1.40;;;19.30;91.60;;;;;;5028303;28;20303;-79
2022/09/09 09:12:53;;;;;;;3.77;1.20;;;19.20;91.80;;;;;;5045192;28;20040;-79
2022/09/09 09:15:27;;;;;;;2.75;1.10;;;19.20;91.80;;;;;;5040900;28;20021;-80
2022/09/09 09:17:52;;;;;;;3.22;1.13;;;19.10;91.70;;;;;;5031273;28;20044;-79
2022/09/09 09:20:42;;;;;;;2.97;1.20;;;19.00;91.60;;;;;;4992613;28;20563;-80
2022/09/09 09:23:17;;;;;;;3.15;1.20;;;18.90;91.60;;;;;;5019908;28;20585;-79
2022/09/09 09:25:44;;;;;;;2.90;1.10;;;18.90;91.70;;;;;;5036318;28;20720;-79
2022/09/09 09:28:24;;;;;;;3.97;1.42;;;18.80;91.90;;;;;;5013701;28;20032;-79
2022/09/09 09:30:57;;;;;;;1.83;1.20;;;18.70;91.90;;;;;;5032268;28;20688;-80
2022/09/09 09:33:26;;;;;;;4.07;1.30;;;18.70;92.00;;;;;;5028800;28;20111;-79
2022/09/09 09:35:53;;;;;;;2.78;1.00;;;18.60;92.10;;;;;;5024334;28;20075;-80
2022/09/09 09:38:27;;;;;;;3.28;1.05;;;18.60;92.10;;;;;;5021300;28;20713;-80
2022/09/09 09:40:57;;;;;;;2.88;1.30;;;18.60;92.10;;;;;;5048599;28;20313;-79
2022/09/09 09:43:37;;;;;;;3.97;1.40;;;18.50;92.40;;;;;;5009213;28;20616;-79
2022/09/09 09:46:17;;;;;;;3.10;1.17;;;18.50;92.40;;;;;;5058131;28;20067;-80
2022/09/09 09:48:45;;;;;;;2.42;1.10;;;18.50;92.50;;;;;;5017085;28;20158;-79
2022/09/09 09:51:15;;;;;;;4.18;1.08;;;18.50;92.70;;;;;;5023266;28;20649;-80
2022/09/09 09:53:41;;;;;;;2.72;1.30;;;18.60;92.70;;;;;;5029101;28;20024;-80
2022/09/09 09:56:10;;;;;;;3.08;1.30;;;18.60;92.90;;;;;;5039516;28;20093;-79
2022/09/09 09:58:38;;;;;;;2.50;1.10;;;18.60;92.90;;;;;;5036083;28;20037;-80
2022/09/09 10:01:04;;;;;;;2.90;1.10;;;18.70;92.80;;;;;;5037948;28;20424;-80
2022/09/09 10:03:37;;;;;;;4.63;1.30;;;18.70;93.00;;;;;;5025546;28;20044;-79
2022/09/09 10:06:03;;;;;;;3.55;1.15;;;18.80;92.90;;;;;;5008561;28;20112;-80
2022/09/09 10:08:29;;;;;;;2.10;1.20;;;18.80;93.10;;;;;;5020181;28;20025;-80
2022/09/09 10:11:19;;;;;;;1.83;1.00;;;18.90;93.10;;;;;;5026371;28;20032;-80
2022/09/09 10:14:06;;;;;;;1.83;1.00;;;19.00;92.90;;;;;;5032465;28;20055;-80
2022/09/09 10:16:52;;;;;;;2.67;1.10;;;19.00;92.80;;;;;;5028335;28;20048;-79
2022/09/09 10:19:42;;;;;;;2.73;1.13;;;19.00;92.30;;;;;;5030076;28;20136;-79
2022/09/09 10:22:28;;;;;;;2.45;1.15;;;19.10;92.70;;;;;;5020246;28;20021;-80
2022/09/09 10:25:08;;;;;;;3.15;1.20;;;19.20;92.70;;;;;;5025165;28;20072;-80
2022/09/09 10:28:18;;;;;;;3.08;1.05;;;19.20;92.70;;;;;;5041195;28;20130;-79
2022/09/09 10:31:19;;;;;;;3.55;1.35;;;19.30;92.60;;;;;;4969623;28;20065;-80
2022/09/09 10:34:06;;;;;;;2.97;1.20;;;19.30;92.40;;;;;;4972106;28;20316;-81
2022/09/09 10:36:32;;;;;;;2.88;1.05;;;19.40;92.40;;;;;;5026285;28;20029;-80
2022/09/09 10:39:18;;;;;;;2.60;1.10;;;19.40;93.00;;;;;;5030952;28;20024;-79
2022/09/09 10:42:07;;;;;;;4.97;1.33;;;19.40;92.50;;;;;;5028228;28;20207;-79
2022/09/09 10:45:02;;;;;;;3.47;1.00;;;19.30;92.10;;;;;;5017175;28;20067;-80
2022/09/09 10:47:50;;;;;;;2.33;1.13;;;19.40;92.20;;;;;;5038802;28;20042;-80
2022/09/09 10:50:44;;;;;;;2.08;1.13;;;19.40;92.80;;;;;;5028125;28;20775;-80
2022/09/09 10:53:40;;;;;;;1.58;1.00;;;19.50;92.50;;;;;;5022948;28;20037;-80
2022/09/09 10:56:10;;;;;;;3.37;1.17;;;19.60;92.70;;;;;;5037645;28;20125;-80
2022/09/09 10:59:04;;;;;;;2.83;1.30;;;19.60;93.20;;;;;;5053456;28;20021;-80
2022/09/09 11:02:02;;;;;;;2.28;1.20;;;19.70;92.60;;;;;;5028556;28;20028;-81
2022/09/09 11:04:48;;;;;;;1.88;1.20;;;19.80;92.70;;;;;;5027360;28;20037;-80
2022/09/09 11:07:23;;;;;;;2.92;1.38;;;19.80;92.00;;;;;;4986016;28;20265;-80
2022/09/09 11:09:56;;;;;;;2.83;1.43;;;19.90;92.90;;;;;;5030443;28;20031;-81
2022/09/09 11:12:24;;;;;;;4.35;1.40;;;20.00;93.30;;;;;;5018444;28;20037;-80
2022/09/09 11:15:05;;;;;;;3.83;1.70;;;20.10;93.30;;;;;;5029711;28;20416;-80
2022/09/09 11:17:46;;;;;;;2.53;1.48;;;20.20;92.90;;;;;;5026160;28;20037;-80
2022/09/09 11:20:14;;;;;;;2.72;1.60;;;20.40;93.00;;;;;;5030618;28;20021;-81
2022/09/09 11:22:43;;;;;;;1.83;1.30;;;20.50;93.10;;;;;;5017902;28;20059;-80
2022/09/09 11:25:21;;;;;;;4.72;1.40;;;20.50;92.70;;;;;;5039699;28;20024;-80
2022/09/09 11:28:01;;;;;;;2.47;1.30;;;20.60;92.70;;;;;;5037730;28;20242;-81
2022/09/09 11:30:30;;;;;;;3.85;1.50;;;20.70;92.70;;;;;;5036353;28;20547;-81
2022/09/09 11:33:24;;;;;;;2.72;1.40;;;20.70;92.20;;;;;;5045561;28;20100;-80
2022/09/09 11:36:25;;;;;;;3.10;1.40;;;20.70;91.00;;;;;;5031487;28;20268;-81
2022/09/09 11:38:52;;;;;;;3.30;1.35;;;20.70;91.00;;;;;;5014081;28;20538;-81
2022/09/09 11:41:20;;;;;;;1.75;1.05;;;20.80;92.00;;;;;;5050483;28;20012;-80
2022/09/09 11:43:56;;;;;;;4.10;1.30;;;20.80;92.20;;;;;;5016321;28;20063;-80
2022/09/09 11:46:35;;;;;;;3.08;1.40;;;20.90;92.00;;;;;;5050769;28;20025;-80
2022/09/09 11:49:49;;;;;;;2.90;1.03;;;21.00;92.00;;;;;;5054400;28;20313;-81
2022/09/09 11:52:35;;;;;;;2.95;1.00;;;21.10;92.60;;;;;;5037734;28;20079;-81
2022/09/09 11:55:23;;;;;;;2.83;1.00;;;21.40;92.30;;;;;;5012541;28;20020;-80
2022/09/09 11:58:05;;;;;;;2.95;1.00;;;21.50;92.20;;;;;;5023594;28;20113;-80
2022/09/09 12:00:40;;;;;;;3.30;1.00;;;21.80;91.60;;;;;;5046787;28;20031;-81
2022/09/09 12:03:26;;;;;;;1.47;0.77;;;21.90;92.10;;;;;;5034653;28;20315;-81
2022/09/09 12:05:53;;;;;;;1.75;0.90;;;22.10;93.10;;;;;;5028434;28;20048;-80
2022/09/09 12:08:28;;;;;;;2.47;1.10;;;22.30;92.70;;;;;;5027137;28;20309;-81
2022/09/09 12:10:56;;;;;;;2.58;0.90;;;22.50;91.70;;;;;;5021533;28;20028;-80
2022/09/09 12:13:23;;;;;;;2.78;0.90;;;22.60;91.30;;;;;;5040770;28;20211;-81
2022/09/09 12:15:53;;;;;;;2.93;0.90;;;22.70;91.40;;;;;;5030557;28;20020;-81
2022/09/09 12:18:44;;;;;;;2.58;0.90;;;22.90;90.80;;;;;;5005280;28;20073;-81
2022/09/09 12:21:31;;;;;;;1.27;0.82;;;23.10;89.20;;;;;;5029954;28;20040;-81
2022/09/09 12:24:14;;;;;;;1.48;0.88;;;23.40;90.10;;;;;;5003711;28;20024;-81
2022/09/09 12:26:45;;;;;;;3.72;1.10;;;23.60;90.80;;;;;;5039766;28;20028;-81
2022/09/09 12:29:23;;;;;;;3.50;1.07;;;23.70;90.00;;;;;;5036346;28;20028;-81
2022/09/09 12:31:57;;;;;;;1.83;0.90;;;23.80;88.30;;;;;;5031790;28;20029;-81
2022/09/09 12:34:39;;;;;;;2.28;1.10;;;23.80;88.30;;;;;;5013889;28;20742;-81
2022/09/09 12:37:18;;;;;;;4.50;1.20;;;23.90;86.80;;;;;;5040768;28;20028;-81
2022/09/09 12:39:57;;;;;;;2.03;1.00;;;24.00;89.30;;;;;;4994679;28;20057;-81
2022/09/09 12:42:24;;;;;;;2.10;0.90;;;24.10;89.40;;;;;;5034289;28;20017;-81
2022/09/09 12:45:01;;;;;;;3.20;1.00;;;24.20;89.50;;;;;;5042648;28;20092;-81
2022/09/09 12:47:35;;;;;;;2.53;0.90;;;24.30;87.10;;;;;;5045455;28;20273;-81
2022/09/09 12:50:01;;;;;;;1.20;0.90;;;24.30;84.50;;;;;;5032049;28;20123;-82
2022/09/09 12:52:32;;;;;;;1.50;0.73;;;24.40;88.50;;;;;;5040101;28;20660;-81
2022/09/09 12:55:00;;;;;;;2.28;0.90;;;24.50;88.50;;;;;;5018530;28;20089;-82
2022/09/09 12:57:32;;;;;;;2.17;1.10;;;24.50;89.20;;;;;;5046748;28;20202;-81
2022/09/09 13:00:12;;;;;;;1.70;0.80;;;24.70;89.00;;;;;;5017283;28;20021;-81
2022/09/09 13:02:47;;;;;;;2.05;0.90;;;24.80;87.20;;;;;;5031317;28;20067;-81
2022/09/09 13:05:16;;;;;;;1.90;0.80;;;24.90;86.20;;;;;;5003041;28;20178;-81
2022/09/09 13:07:43;;;;;;;2.47;1.00;;;24.90;87.10;;;;;;5035476;28;20017;-81
2022/09/09 13:10:12;;;;;;;1.80;0.90;;;24.90;86.40;;;;;;5010734;28;20509;-82
2022/09/09 13:12:38;;;;;;;1.65;0.95;;;24.80;85.30;;;;;;5033517;28;20437;-81
2022/09/09 13:15:22;;;;;;;1.63;1.02;;;24.80;85.90;;;;;;5062118;28;20017;-81